Time;durP1;ratioP1;P1;durP2;ratioP2;P2;SDS_P1;SDS_P2;PMS_P1;PMS_P2;Temp;Humidity;BMP_temperature;BMP_pressure;BME280_temperature;BME280_humidity;BME280_pressure;Samples;Min_cycle;Max_cycle;Signal;HPM_P1;HPM_P2
2023/10/22 00:00:43;;;;;;;3.28;1.67;;;;;;;;;;5028937;28;20114;-59
2023/10/22 00:03:08;;;;;;;4.65;1.63;;;;;;;;;;5030489;28;20036;-58
2023/10/22 00:05:33;;;;;;;7.03;2.47;;;;;;;;;;5029293;28;20029;-58
2023/10/22 00:07:58;;;;;;;3.43;2.23;;;;;;;;;;5030189;28;20025;-62
2023/10/22 00:10:24;;;;;;;8.27;1.73;;;;;;;;;;5029447;28;20123;-58
2023/10/22 00:12:49;;;;;;;4.70;1.50;;;;;;;;;;5030150;28;20068;-59
2023/10/22 00:15:14;;;;;;;7.27;2.90;;;;;;;;;;5028779;28;20444;-59
2023/10/22 00:17:41;;;;;;;4.70;2.53;;;;;;;;;;5030979;28;20452;-58
2023/10/22 00:20:06;;;;;;;8.90;2.33;;;;;;;;;;5029134;28;20552;-58
2023/10/22 00:22:32;;;;;;;4.63;2.05;;;;;;;;;;5030084;28;20023;-58
2023/10/22 00:24:57;;;;;;;4.50;1.90;;;;;;;;;;5027534;28;20034;-57
2023/10/22 00:27:22;;;;;;;4.43;2.47;;;;;;;;;;5030691;28;20100;-58
2023/10/22 00:29:47;;;;;;;5.77;2.13;;;;;;;;;;5029019;28;20017;-58
2023/10/22 00:32:12;;;;;;;5.03;1.80;;;;;;;;;;5029789;28;20066;-58
2023/10/22 00:34:37;;;;;;;6.70;2.63;;;;;;;;;;5028906;28;20041;-58
2023/10/22 00:37:03;;;;;;;6.97;1.80;;;;;;;;;;5030170;28;20018;-58
2023/10/22 00:39:28;;;;;;;4.15;2.17;;;;;;;;;;5030910;28;20456;-69
2023/10/22 00:41:53;;;;;;;8.60;2.53;;;;;;;;;;5027238;28;20670;-57
2023/10/22 00:44:18;;;;;;;5.30;1.57;;;;;;;;;;5029763;28;20444;-58
2023/10/22 00:46:46;;;;;;;10.65;2.55;;;;;;;;;;5029125;28;20163;-58
2023/10/22 00:49:12;;;;;;;3.45;1.98;;;;;;;;;;5030447;28;20021;-58
2023/10/22 00:51:37;;;;;;;6.30;2.03;;;;;;;;;;5028630;28;20528;-58
2023/10/22 00:54:03;;;;;;;4.53;1.80;;;;;;;;;;5029967;28;20121;-58
2023/10/22 00:56:28;;;;;;;2.50;2.00;;;;;;;;;;5028105;28;20562;-58
2023/10/22 00:58:53;;;;;;;6.60;1.57;;;;;;;;;;5030831;28;20022;-58
2023/10/22 01:01:19;;;;;;;3.22;2.40;;;;;;;;;;5032961;28;20858;-58
2023/10/22 01:03:44;;;;;;;4.32;1.75;;;;;;;;;;5033819;28;20014;-58
2023/10/22 01:06:10;;;;;;;15.27;3.27;;;;;;;;;;5031663;28;20407;-58
2023/10/22 01:08:36;;;;;;;3.08;1.33;;;;;;;;;;5034306;28;20427;-58
2023/10/22 01:11:08;;;;;;;2.88;1.55;;;;;;;;;;5032220;28;20532;-58
2023/10/22 01:13:33;;;;;;;2.20;1.65;;;;;;;;;;5033165;28;20520;-58
2023/10/22 01:15:58;;;;;;;5.40;1.63;;;;;;;;;;5032412;28;20148;-58
2023/10/22 01:18:24;;;;;;;3.07;1.50;;;;;;;;;;5033828;28;20025;-58
2023/10/22 01:20:49;;;;;;;3.50;1.55;;;;;;;;;;5031725;28;20436;-58
2023/10/22 01:23:14;;;;;;;4.93;1.67;;;;;;;;;;5033533;28;20029;-59
2023/10/22 01:25:40;;;;;;;11.67;1.53;;;;;;;;;;5032045;28;20124;-59
2023/10/22 01:28:05;;;;;;;5.65;1.30;;;;;;;;;;5032752;28;20475;-59
2023/10/22 01:30:30;;;;;;;4.30;1.50;;;;;;;;;;5032153;28;20037;-58
2023/10/22 01:32:55;;;;;;;3.07;1.50;;;;;;;;;;5033119;28;20090;-59
2023/10/22 01:35:20;;;;;;;2.70;1.60;;;;;;;;;;5031751;28;20463;-59
2023/10/22 01:37:46;;;;;;;4.10;2.25;;;;;;;;;;5033762;28;20455;-59
2023/10/22 01:40:11;;;;;;;6.13;2.07;;;;;;;;;;5031691;28;20471;-59
2023/10/22 01:42:37;;;;;;;2.38;1.20;;;;;;;;;;5033014;28;20018;-58
2023/10/22 01:45:02;;;;;;;3.42;2.38;;;;;;;;;;5031746;28;20188;-58
2023/10/22 01:47:27;;;;;;;6.95;1.95;;;;;;;;;;5033574;28;20024;-72
2023/10/22 01:49:52;;;;;;;5.00;2.10;;;;;;;;;;5030346;28;20108;-58
2023/10/22 01:52:17;;;;;;;4.23;1.30;;;;;;;;;;5032825;28;20014;-58
2023/10/22 01:54:43;;;;;;;5.57;1.73;;;;;;;;;;5031342;28;20017;-58
2023/10/22 01:57:08;;;;;;;1.80;1.17;;;;;;;;;;5032526;28;20014;-72
2023/10/22 01:59:33;;;;;;;3.22;1.48;;;;;;;;;;5032966;28;20452;-59
2023/10/22 02:01:58;;;;;;;3.42;2.13;;;;;;;;;;5031052;28;20034;-58
2023/10/22 02:04:23;;;;;;;7.00;2.47;;;;;;;;;;5032735;28;20499;-59
2023/10/22 02:06:48;;;;;;;3.37;2.37;;;;;;;;;;5031346;28;20037;-58
2023/10/22 02:09:16;;;;;;;2.80;1.20;;;;;;;;;;5032946;28;20026;-58
2023/10/22 02:11:42;;;;;;;3.95;2.00;;;;;;;;;;5029532;28;21052;-59
2023/10/22 02:14:07;;;;;;;2.17;1.17;;;;;;;;;;5032527;28;20109;-58
2023/10/22 02:16:32;;;;;;;1.70;1.60;;;;;;;;;;5031295;28;20404;-58
2023/10/22 02:18:57;;;;;;;5.57;1.70;;;;;;;;;;5032754;28;20024;-58
2023/10/22 02:21:26;;;;;;;5.45;1.70;;;;;;;;;;5031002;28;20037;-59
2023/10/22 02:23:52;;;;;;;;;;;;;;;;;;5032567;28;20024;-59
2023/10/22 02:26:17;;;;;;;4.32;2.55;;;;;;;;;;5031046;28;19913;-58
2023/10/22 02:28:43;;;;;;;3.35;2.08;;;;;;;;;;5032134;28;20428;-58
2023/10/22 02:31:10;;;;;;;2.73;1.07;;;;;;;;;;5030607;28;20053;-58
2023/10/22 02:33:35;;;;;;;1.60;1.20;;;;;;;;;;5032289;28;20454;-58
2023/10/22 02:36:00;;;;;;;1.20;1.20;;;;;;;;;;5029230;28;20128;-59
2023/10/22 02:38:25;;;;;;;3.47;2.35;;;;;;;;;;5032646;28;20021;-58
2023/10/22 02:40:51;;;;;;;2.42;1.45;;;;;;;;;;5030497;28;20128;-58
2023/10/22 02:43:16;;;;;;;6.13;1.42;;;;;;;;;;5031972;28;20068;-58
2023/10/22 02:45:51;;;;;;;7.95;2.63;;;;;;;;;;5030743;28;20025;-58
2023/10/22 02:48:16;;;;;;;1.33;1.23;;;;;;;;;;5032013;28;20417;-58
2023/10/22 02:50:41;;;;;;;2.60;1.50;;;;;;;;;;5030087;28;20068;-58
2023/10/22 02:53:06;;;;;;;1.67;1.20;;;;;;;;;;5031804;28;20029;-58
2023/10/22 02:55:32;;;;;;;1.33;1.20;;;;;;;;;;5030832;28;20456;-58
2023/10/22 02:57:57;;;;;;;3.67;1.35;;;;;;;;;;5031445;28;20072;-58
2023/10/22 03:00:22;;;;;;;3.90;1.63;;;;;;;;;;5030391;28;20077;-58
2023/10/22 03:02:47;;;;;;;6.83;2.27;;;;;;;;;;5031511;28;20021;-58
2023/10/22 03:05:12;;;;;;;3.00;2.77;;;;;;;;;;5030177;28;20045;-58
2023/10/22 03:07:37;;;;;;;3.83;1.55;;;;;;;;;;5031956;28;20428;-58
2023/10/22 03:10:03;;;;;;;2.37;2.00;;;;;;;;;;5028692;28;20045;-58
2023/10/22 03:12:28;;;;;;;1.42;1.33;;;;;;;;;;5031131;28;20020;-66
2023/10/22 03:14:54;;;;;;;13.20;2.13;;;;;;;;;;5029965;28;20009;-58
2023/10/22 03:17:19;;;;;;;4.80;1.50;;;;;;;;;;5031955;28;20112;-58
2023/10/22 03:19:45;;;;;;;2.15;1.23;;;;;;;;;;5029415;28;20448;-57
2023/10/22 03:22:10;;;;;;;2.55;1.35;;;;;;;;;;5030523;28;20028;-57
2023/10/22 03:24:36;;;;;;;13.93;3.45;;;;;;;;;;5031818;28;20368;-58
2023/10/22 03:27:04;;;;;;;3.00;1.30;;;;;;;;;;5029367;28;20116;-58
2023/10/22 03:29:29;;;;;;;3.63;1.83;;;;;;;;;;5031634;28;20052;-58
2023/10/22 03:31:54;;;;;;;2.25;1.25;;;;;;;;;;5028927;28;20524;-58
2023/10/22 03:34:19;;;;;;;6.55;2.35;;;;;;;;;;5030388;28;20069;-57
2023/10/22 03:36:44;;;;;;;3.73;2.43;;;;;;;;;;5030012;28;20041;-58
2023/10/22 03:39:10;;;;;;;1.70;1.10;;;;;;;;;;5030913;28;20020;-57
2023/10/22 03:41:35;;;;;;;1.23;1.23;;;;;;;;;;5028296;28;20627;-57
2023/10/22 03:44:00;;;;;;;2.53;1.57;;;;;;;;;;5030586;28;20056;-58
2023/10/22 03:46:26;;;;;;;2.03;1.40;;;;;;;;;;5029774;28;20041;-58
2023/10/22 03:48:51;;;;;;;4.78;2.42;;;;;;;;;;5030478;28;20022;-71
2023/10/22 03:51:16;;;;;;;5.72;2.13;;;;;;;;;;5029539;28;20484;-57
2023/10/22 03:53:41;;;;;;;3.30;1.43;;;;;;;;;;5030663;28;20025;-57
2023/10/22 03:56:07;;;;;;;4.77;1.60;;;;;;;;;;5029056;28;20124;-58
2023/10/22 03:58:32;;;;;;;8.57;2.03;;;;;;;;;;5031067;28;20039;-57
2023/10/22 04:00:57;;;;;;;3.95;2.35;;;;;;;;;;5029459;28;20454;-58
2023/10/22 04:03:23;;;;;;;5.00;2.67;;;;;;;;;;5030506;28;20017;-72
2023/10/22 04:05:57;;;;;;;3.00;2.38;;;;;;;;;;5028707;28;20481;-58
2023/10/22 04:08:25;;;;;;;3.30;2.03;;;;;;;;;;5030838;28;20022;-58
2023/10/22 04:10:51;;;;;;;2.97;2.78;;;;;;;;;;5028670;28;20050;-58
2023/10/22 04:13:16;;;;;;;4.05;2.35;;;;;;;;;;5030419;28;20020;-58
2023/10/22 04:15:41;;;;;;;5.80;2.20;;;;;;;;;;5029415;28;20056;-58
2023/10/22 04:18:06;;;;;;;2.33;2.10;;;;;;;;;;5029955;28;20021;-57
2023/10/22 04:20:33;;;;;;;7.93;2.15;;;;;;;;;;5029503;28;20108;-57
2023/10/22 04:22:58;;;;;;;2.88;1.95;;;;;;;;;;5030054;28;20021;-57
2023/10/22 04:25:23;;;;;;;6.07;2.05;;;;;;;;;;5028914;28;20033;-57
2023/10/22 04:27:48;;;;;;;2.65;2.00;;;;;;;;;;5030499;28;20057;-66
2023/10/22 04:30:14;;;;;;;4.63;2.00;;;;;;;;;;5028827;28;20041;-57
2023/10/22 04:32:39;;;;;;;4.95;2.13;;;;;;;;;;5029968;28;20025;-58
2023/10/22 04:35:05;;;;;;;6.03;2.33;;;;;;;;;;5031905;28;20065;-57
2023/10/22 04:37:30;;;;;;;4.82;1.90;;;;;;;;;;5034480;28;20468;-57
2023/10/22 04:39:58;;;;;;;7.38;2.20;;;;;;;;;;5032218;28;20114;-57
2023/10/22 04:42:24;;;;;;;2.60;2.40;;;;;;;;;;5034244;28;20064;-58
2023/10/22 04:44:49;;;;;;;5.20;2.83;;;;;;;;;;5032924;28;20472;-58
2023/10/22 04:47:14;;;;;;;5.28;2.88;;;;;;;;;;5033850;28;20052;-58
2023/10/22 04:49:39;;;;;;;4.23;2.53;;;;;;;;;;5032708;28;20433;-58
2023/10/22 04:52:09;;;;;;;5.43;1.97;;;;;;;;;;5033748;28;20068;-58
2023/10/22 04:54:34;;;;;;;9.02;3.38;;;;;;;;;;5032807;28;20435;-57
2023/10/22 04:56:59;;;;;;;12.07;3.10;;;;;;;;;;5034002;28;20024;-57
2023/10/22 04:59:24;;;;;;;6.47;3.20;;;;;;;;;;5034324;28;20064;-58
2023/10/22 05:01:49;;;;;;;4.28;3.15;;;;;;;;;;5032073;28;20464;-58
2023/10/22 05:04:14;;;;;;;4.00;3.70;;;;;;;;;;5033667;28;20026;-58
2023/10/22 05:06:40;;;;;;;6.05;3.25;;;;;;;;;;5032178;28;20038;-58
2023/10/22 05:09:05;;;;;;;5.13;2.73;;;;;;;;;;5033948;28;20026;-58
2023/10/22 05:11:30;;;;;;;4.53;2.85;;;;;;;;;;5032224;28;20116;-58
2023/10/22 05:13:55;;;;;;;4.30;3.87;;;;;;;;;;5033399;28;20021;-58
2023/10/22 05:16:20;;;;;;;5.27;3.97;;;;;;;;;;5032516;28;20071;-58
2023/10/22 05:18:46;;;;;;;5.03;3.92;;;;;;;;;;5033523;28;20025;-58
2023/10/22 05:21:11;;;;;;;5.47;4.20;;;;;;;;;;5032138;28;20033;-58
2023/10/22 05:23:36;;;;;;;7.90;4.65;;;;;;;;;;5033563;28;20030;-58
2023/10/22 05:26:11;;;;;;;7.73;4.23;;;;;;;;;;5031289;28;20120;-58
2023/10/22 05:28:37;;;;;;;4.95;4.45;;;;;;;;;;5032459;28;20443;-58
2023/10/22 05:31:10;;;;;;;11.20;5.13;;;;;;;;;;5031994;28;20038;-58
2023/10/22 05:33:35;;;;;;;7.63;6.15;;;;;;;;;;5032753;28;20033;-58
2023/10/22 05:36:00;;;;;;;8.00;7.20;;;;;;;;;;5032008;28;20572;-58
2023/10/22 05:38:25;;;;;;;8.23;7.43;;;;;;;;;;5033463;28;20021;-58
2023/10/22 05:40:50;;;;;;;10.33;7.67;;;;;;;;;;5030138;28;20064;-58
2023/10/22 05:43:16;;;;;;;7.70;6.87;;;;;;;;;;5033203;28;20376;-58
2023/10/22 05:45:42;;;;;;;9.52;6.05;;;;;;;;;;5031904;28;20425;-58
2023/10/22 05:48:07;;;;;;;15.00;8.30;;;;;;;;;;5032800;28;20108;-58
2023/10/22 05:50:36;;;;;;;6.65;5.97;;;;;;;;;;5031210;28;20029;-58
2023/10/22 05:53:01;;;;;;;8.38;7.63;;;;;;;;;;5032098;28;20013;-58
2023/10/22 05:55:26;;;;;;;10.25;7.38;;;;;;;;;;5032498;28;20029;-58
2023/10/22 05:57:51;;;;;;;8.20;7.40;;;;;;;;;;5031224;28;20034;-58
2023/10/22 06:00:16;;;;;;;11.93;7.72;;;;;;;;;;5032990;28;20075;-58
2023/10/22 06:02:42;;;;;;;12.57;8.90;;;;;;;;;;5030588;28;20041;-58
2023/10/22 06:05:12;;;;;;;14.93;8.38;;;;;;;;;;5033039;28;20087;-58
2023/10/22 06:07:37;;;;;;;17.30;8.48;;;;;;;;;;5031458;28;20034;-58
2023/10/22 06:10:02;;;;;;;12.97;9.77;;;;;;;;;;5032474;28;20522;-58
2023/10/22 06:12:28;;;;;;;9.10;7.73;;;;;;;;;;5030919;28;20464;-58
2023/10/22 06:14:53;;;;;;;15.10;7.80;;;;;;;;;;5032519;28;20428;-58
2023/10/22 06:17:18;;;;;;;14.57;9.30;;;;;;;;;;5030830;28;20029;-58
2023/10/22 06:19:44;;;;;;;14.33;8.53;;;;;;;;;;5031851;28;20498;-58
2023/10/22 06:22:09;;;;;;;10.65;7.13;;;;;;;;;;5028541;28;20396;-62
2023/10/22 06:24:34;;;;;;;9.85;8.40;;;;;;;;;;5028380;28;20023;-65
2023/10/22 06:26:59;;;;;;;16.70;8.48;;;;;;;;;;5030897;28;20033;-58
2023/10/22 06:29:25;;;;;;;8.83;6.93;;;;;;;;;;5031760;28;20349;-58
2023/10/22 06:31:50;;;;;;;20.20;10.23;;;;;;;;;;5027516;28;20080;-58
2023/10/22 06:34:15;;;;;;;9.85;7.70;;;;;;;;;;5032124;28;20061;-58
2023/10/22 06:36:41;;;;;;;13.50;8.63;;;;;;;;;;5018640;28;20200;-58
2023/10/22 06:39:06;;;;;;;11.02;9.73;;;;;;;;;;5018995;28;20104;-58
2023/10/22 06:41:31;;;;;;;10.77;8.88;;;;;;;;;;5029560;28;20540;-58
2023/10/22 06:43:57;;;;;;;13.73;9.48;;;;;;;;;;5031112;28;20021;-58
2023/10/22 06:46:22;;;;;;;12.75;8.73;;;;;;;;;;5020089;28;20061;-58
2023/10/22 06:48:48;;;;;;;20.27;9.53;;;;;;;;;;5028101;28;20021;-56
2023/10/22 06:51:16;;;;;;;7.80;6.88;;;;;;;;;;5029180;28;20404;-56
2023/10/22 06:53:42;;;;;;;8.98;8.15;;;;;;;;;;5030010;28;20440;-56
2023/10/22 06:56:08;;;;;;;10.15;6.95;;;;;;;;;;5029547;28;20036;-56
2023/10/22 06:58:33;;;;;;;7.53;6.78;;;;;;;;;;5031025;28;20083;-56
2023/10/22 07:01:05;;;;;;;12.32;8.23;;;;;;;;;;5028779;28;20029;-56
2023/10/22 07:03:30;;;;;;;9.52;8.45;;;;;;;;;;5030638;28;20033;-56
2023/10/22 07:05:55;;;;;;;10.47;9.47;;;;;;;;;;5028816;28;20516;-56
2023/10/22 07:08:20;;;;;;;12.70;9.18;;;;;;;;;;5028803;28;20087;-56
2023/10/22 07:10:46;;;;;;;25.45;10.60;;;;;;;;;;5028927;28;20476;-56
2023/10/22 07:13:11;;;;;;;12.20;10.93;;;;;;;;;;5030600;28;20021;-55
2023/10/22 07:15:36;;;;;;;13.00;10.13;;;;;;;;;;5023849;28;20097;-56
2023/10/22 07:18:01;;;;;;;19.70;12.63;;;;;;;;;;5027221;28;20270;-56
2023/10/22 07:20:26;;;;;;;14.07;12.60;;;;;;;;;;5028362;28;20018;-56
2023/10/22 07:22:51;;;;;;;15.45;12.70;;;;;;;;;;5027574;28;20818;-56
2023/10/22 07:25:17;;;;;;;14.20;12.67;;;;;;;;;;5030398;28;20013;-56
2023/10/22 07:27:42;;;;;;;9.57;7.30;;;;;;;;;;5029528;28;20040;-56
2023/10/22 07:30:07;;;;;;;12.40;6.97;;;;;;;;;;5027555;28;20487;-56
2023/10/22 07:32:32;;;;;;;7.60;6.80;;;;;;;;;;5029155;28;20361;-56
2023/10/22 07:34:58;;;;;;;8.27;5.70;;;;;;;;;;5028224;28;20405;-56
2023/10/22 07:37:23;;;;;;;9.23;5.63;;;;;;;;;;5030166;28;20010;-55
2023/10/22 07:39:48;;;;;;;7.93;6.03;;;;;;;;;;5027554;28;20456;-55
2023/10/22 07:42:13;;;;;;;7.87;6.13;;;;;;;;;;5030215;28;20493;-56
2023/10/22 07:44:38;;;;;;;7.63;6.93;;;;;;;;;;5028963;28;20099;-55
2023/10/22 07:47:04;;;;;;;9.83;8.87;;;;;;;;;;5025995;28;20010;-56
2023/10/22 07:49:29;;;;;;;9.43;7.70;;;;;;;;;;5029510;28;20448;-55
2023/10/22 07:51:54;;;;;;;10.88;9.77;;;;;;;;;;5027594;28;20476;-56
2023/10/22 07:54:19;;;;;;;11.77;9.15;;;;;;;;;;5027535;28;20029;-56
2023/10/22 07:56:44;;;;;;;9.80;8.93;;;;;;;;;;5028343;28;20041;-56
2023/10/22 07:59:09;;;;;;;20.80;10.30;;;;;;;;;;5029710;28;20027;-55
2023/10/22 08:01:35;;;;;;;11.82;10.27;;;;;;;;;;5027426;28;20034;-56
2023/10/22 08:04:00;;;;;;;29.60;13.27;;;;;;;;;;5030113;28;20599;-56
2023/10/22 08:06:25;;;;;;;15.00;13.40;;;;;;;;;;5028451;28;20460;-55
2023/10/22 08:08:54;;;;;;;19.47;13.10;;;;;;;;;;5027963;28;20025;-56
2023/10/22 08:11:19;;;;;;;13.93;11.10;;;;;;;;;;5028285;28;20498;-55
2023/10/22 08:13:44;;;;;;;14.38;9.85;;;;;;;;;;5030367;28;20022;-56
2023/10/22 08:16:12;;;;;;;11.32;10.02;;;;;;;;;;5027167;28;20124;-56
2023/10/22 08:18:37;;;;;;;17.52;10.30;;;;;;;;;;5029567;28;20524;-56
2023/10/22 08:21:03;;;;;;;10.98;7.75;;;;;;;;;;5028125;28;20061;-55
2023/10/22 08:23:29;;;;;;;12.80;8.50;;;;;;;;;;5028601;28;20025;-56
2023/10/22 08:25:55;;;;;;;10.88;7.90;;;;;;;;;;5028420;28;20040;-56
2023/10/22 08:28:20;;;;;;;7.88;6.22;;;;;;;;;;5029592;28;20018;-56
2023/10/22 08:30:48;;;;;;;10.10;7.60;;;;;;;;;;5026963;28;20106;-55
2023/10/22 08:33:13;;;;;;;;;;;;;;;;;;5030242;28;20022;-56
2023/10/22 08:35:39;;;;;;;10.07;7.38;;;;;;;;;;5028171;28;19921;-56
2023/10/22 08:38:04;;;;;;;9.45;6.03;;;;;;;;;;5028007;28;20468;-56
2023/10/22 08:40:29;;;;;;;7.72;6.20;;;;;;;;;;5028707;28;20033;-55
2023/10/22 08:42:55;;;;;;;10.15;4.72;;;;;;;;;;5029983;28;20376;-56
2023/10/22 08:45:22;;;;;;;11.77;6.05;;;;;;;;;;5026629;28;20042;-56
2023/10/22 08:47:47;;;;;;;6.32;3.97;;;;;;;;;;5029730;28;20498;-55
2023/10/22 08:50:15;;;;;;;12.13;4.65;;;;;;;;;;5027588;28;20083;-55
2023/10/22 08:52:40;;;;;;;11.15;5.10;;;;;;;;;;5028426;28;20013;-56
2023/10/22 08:55:07;;;;;;;3.70;3.30;;;;;;;;;;5024617;28;20040;-55
2023/10/22 08:57:32;;;;;;;9.10;3.88;;;;;;;;;;5024992;28;20048;-56
2023/10/22 08:59:57;;;;;;;7.05;3.70;;;;;;;;;;5025995;28;20484;-56
2023/10/22 09:02:26;;;;;;;5.70;3.97;;;;;;;;;;5029036;28;20030;-56
2023/10/22 09:04:52;;;;;;;7.63;3.47;;;;;;;;;;5027584;28;20045;-56
2023/10/22 09:07:17;;;;;;;3.30;2.90;;;;;;;;;;5027960;28;20583;-56
2023/10/22 09:09:43;;;;;;;3.17;2.50;;;;;;;;;;5028383;28;20550;-56
2023/10/22 09:12:10;;;;;;;4.43;2.67;;;;;;;;;;5029591;28;20068;-56
2023/10/22 09:14:35;;;;;;;4.50;2.78;;;;;;;;;;5026970;28;20026;-55
2023/10/22 09:17:14;;;;;;;4.67;3.00;;;;;;;;;;5029358;28;20017;-56
2023/10/22 09:19:40;;;;;;;3.83;2.13;;;;;;;;;;5029052;28;20535;-56
2023/10/22 09:22:06;;;;;;;6.57;2.92;;;;;;;;;;5030897;28;20021;-56
2023/10/22 09:24:35;;;;;;;5.32;2.40;;;;;;;;;;5032013;28;20029;-56
2023/10/22 09:27:01;;;;;;;6.18;2.55;;;;;;;;;;5034714;28;20041;-56
2023/10/22 09:29:26;;;;;;;2.63;2.42;;;;;;;;;;5032088;28;20036;-56
2023/10/22 09:31:53;;;;;;;11.27;2.72;;;;;;;;;;5030967;28;20039;-56
2023/10/22 09:34:28;;;;;;;3.28;2.40;;;;;;;;;;5033214;28;20064;-56
2023/10/22 09:36:54;;;;;;;3.65;1.95;;;;;;;;;;5015201;28;20045;-56
2023/10/22 09:39:31;;;;;;;2.33;2.13;;;;;;;;;;5046481;28;20013;-56
2023/10/22 09:41:56;;;;;;;2.28;2.03;;;;;;;;;;5036190;28;20044;-56
2023/10/22 09:44:22;;;;;;;2.10;1.90;;;;;;;;;;5031405;28;20022;-56
2023/10/22 09:46:48;;;;;;;2.00;1.80;;;;;;;;;;5030874;28;20444;-56
2023/10/22 09:49:14;;;;;;;5.93;2.30;;;;;;;;;;5032850;28;20171;-56
2023/10/22 09:51:40;;;;;;;2.25;1.80;;;;;;;;;;5029645;28;20117;-58
2023/10/22 09:54:06;;;;;;;5.40;2.67;;;;;;;;;;5031524;28;20041;-56
2023/10/22 09:56:32;;;;;;;3.28;2.13;;;;;;;;;;5015243;28;20036;-56
2023/10/22 09:59:02;;;;;;;10.88;2.35;;;;;;;;;;5011423;28;20108;-56
2023/10/22 10:01:29;;;;;;;4.72;2.22;;;;;;;;;;5011024;28;20088;-56
2023/10/22 10:03:57;;;;;;;5.00;1.85;;;;;;;;;;5012139;28;20040;-57
2023/10/22 10:06:22;;;;;;;3.33;2.17;;;;;;;;;;5024415;28;20469;-56
2023/10/22 10:08:48;;;;;;;3.00;1.50;;;;;;;;;;5032328;28;20109;-56
2023/10/22 10:11:14;;;;;;;3.47;1.70;;;;;;;;;;5031179;28;20185;-56
2023/10/22 10:13:40;;;;;;;14.35;3.60;;;;;;;;;;5030505;28;20057;-56
2023/10/22 10:16:05;;;;;;;2.00;1.77;;;;;;;;;;5030131;28;20140;-56
2023/10/22 10:18:50;;;;;;;2.63;1.80;;;;;;;;;;5031212;28;20021;-56
2023/10/22 10:21:33;;;;;;;4.05;2.47;;;;;;;;;;5026048;28;20026;-54
2023/10/22 10:24:27;;;;;;;5.95;2.42;;;;;;;;;;5029027;28;20021;-56
2023/10/22 10:26:56;;;;;;;5.22;1.80;;;;;;;;;;4998751;28;20042;-56
2023/10/22 10:29:28;;;;;;;2.63;2.08;;;;;;;;;;5009463;28;20448;-56
2023/10/22 10:31:55;;;;;;;6.15;2.05;;;;;;;;;;5007611;28;20096;-56
2023/10/22 10:34:35;;;;;;;6.75;2.15;;;;;;;;;;5002915;28;20042;-56
2023/10/22 10:37:12;;;;;;;3.10;1.52;;;;;;;;;;5028354;28;20049;-56
2023/10/22 10:39:39;;;;;;;4.95;2.05;;;;;;;;;;5029651;28;20021;-56
2023/10/22 10:42:04;;;;;;;2.20;1.88;;;;;;;;;;5031036;28;20104;-56
2023/10/22 10:44:30;;;;;;;2.65;1.65;;;;;;;;;;5029922;28;20105;-56
2023/10/22 10:47:14;;;;;;;1.70;1.60;;;;;;;;;;5029244;28;20041;-56
2023/10/22 10:49:53;;;;;;;2.50;1.63;;;;;;;;;;5029724;28;20036;-56
2023/10/22 10:52:18;;;;;;;3.30;1.80;;;;;;;;;;5030126;28;20492;-60
2023/10/22 10:54:57;;;;;;;2.47;1.85;;;;;;;;;;5029582;28;20026;-56
2023/10/22 10:57:35;;;;;;;4.07;2.13;;;;;;;;;;5016832;28;20418;-56
2023/10/22 11:00:01;;;;;;;3.55;2.10;;;;;;;;;;5028613;28;20046;-56
2023/10/22 11:02:26;;;;;;;9.63;2.30;;;;;;;;;;5031504;28;20017;-56
2023/10/22 11:04:51;;;;;;;1.90;1.70;;;;;;;;;;5028187;28;20029;-55
2023/10/22 11:07:18;;;;;;;2.83;1.42;;;;;;;;;;5028936;28;20017;-55
2023/10/22 11:09:43;;;;;;;7.25;2.20;;;;;;;;;;5030056;28;20021;-55
2023/10/22 11:12:08;;;;;;;2.00;1.77;;;;;;;;;;5029647;28;20017;-56
2023/10/22 11:14:34;;;;;;;1.73;1.23;;;;;;;;;;5030149;28;20463;-55
2023/10/22 11:16:59;;;;;;;7.05;2.45;;;;;;;;;;5029107;28;20030;-55
2023/10/22 11:19:27;;;;;;;4.60;1.85;;;;;;;;;;5029808;28;20029;-55
2023/10/22 11:21:54;;;;;;;4.18;1.88;;;;;;;;;;5028312;28;20116;-55
2023/10/22 11:24:20;;;;;;;5.15;1.50;;;;;;;;;;5031324;28;20009;-55
2023/10/22 11:26:47;;;;;;;2.08;1.00;;;;;;;;;;5029056;28;20037;-56
2023/10/22 11:29:12;;;;;;;4.32;1.35;;;;;;;;;;5029238;28;20017;-56
2023/10/22 11:31:37;;;;;;;7.82;2.85;;;;;;;;;;5028313;28;20044;-56
2023/10/22 11:34:12;;;;;;;2.23;1.70;;;;;;;;;;5029194;28;20060;-55
2023/10/22 11:36:38;;;;;;;2.45;1.70;;;;;;;;;;5023321;28;20468;-56
2023/10/22 11:39:13;;;;;;;1.52;1.42;;;;;;;;;;5029957;28;20031;-56
2023/10/22 11:41:38;;;;;;;4.43;2.75;;;;;;;;;;5027300;28;20065;-56
2023/10/22 11:44:04;;;;;;;4.00;1.77;;;;;;;;;;5027724;28;20022;-55
2023/10/22 11:46:41;;;;;;;5.00;2.15;;;;;;;;;;5027744;28;20542;-55
2023/10/22 11:49:06;;;;;;;2.20;1.20;;;;;;;;;;5023978;28;20109;-55
2023/10/22 11:51:44;;;;;;;1.90;1.20;;;;;;;;;;5021672;28;20120;-56
2023/10/22 11:54:10;;;;;;;3.45;1.73;;;;;;;;;;5012756;28;20022;-56
2023/10/22 11:56:35;;;;;;;2.33;2.08;;;;;;;;;;5021652;28;20052;-55
2023/10/22 11:59:00;;;;;;;2.33;2.13;;;;;;;;;;5028971;28;20377;-55
2023/10/22 12:01:25;;;;;;;3.85;2.38;;;;;;;;;;5028788;28;20034;-55
2023/10/22 12:03:51;;;;;;;1.95;1.30;;;;;;;;;;5028292;28;20017;-55
2023/10/22 12:06:16;;;;;;;4.40;1.87;;;;;;;;;;5025083;28;20036;-55
2023/10/22 12:08:41;;;;;;;9.67;3.13;;;;;;;;;;5026416;28;20072;-55
2023/10/22 12:11:06;;;;;;;2.13;1.80;;;;;;;;;;5027861;28;20785;-55
2023/10/22 12:13:31;;;;;;;1.77;1.67;;;;;;;;;;5028960;28;20029;-55
2023/10/22 12:15:56;;;;;;;3.97;2.33;;;;;;;;;;5027970;28;20068;-56
2023/10/22 12:18:23;;;;;;;3.03;1.58;;;;;;;;;;5029189;28;20041;-56
2023/10/22 12:20:48;;;;;;;5.45;2.20;;;;;;;;;;5028713;28;20037;-56
2023/10/22 12:23:13;;;;;;;4.10;1.57;;;;;;;;;;5029913;28;20430;-56
2023/10/22 12:25:39;;;;;;;4.25;1.75;;;;;;;;;;5028125;28;20034;-55
2023/10/22 12:28:04;;;;;;;5.05;1.70;;;;;;;;;;5029406;28;20032;-56
2023/10/22 12:30:29;;;;;;;4.75;2.40;;;;;;;;;;5028299;28;20048;-56
2023/10/22 12:32:54;;;;;;;3.10;1.50;;;;;;;;;;5028847;28;20489;-56
2023/10/22 12:35:19;;;;;;;2.10;1.60;;;;;;;;;;5027618;28;21002;-55
2023/10/22 12:37:44;;;;;;;3.93;1.43;;;;;;;;;;5030052;28;20045;-56
2023/10/22 12:40:10;;;;;;;1.50;1.40;;;;;;;;;;5028068;28;20451;-55
2023/10/22 12:42:40;;;;;;;2.42;2.08;;;;;;;;;;5029141;28;20040;-55
2023/10/22 12:45:06;;;;;;;3.35;1.60;;;;;;;;;;5027372;28;20068;-58
2023/10/22 12:47:31;;;;;;;4.65;1.77;;;;;;;;;;5019513;28;20022;-56
2023/10/22 12:49:56;;;;;;;2.35;1.48;;;;;;;;;;5027774;28;20029;-55
2023/10/22 12:52:21;;;;;;;4.13;1.35;;;;;;;;;;5029258;28;20013;-56
2023/10/22 12:54:49;;;;;;;2.27;1.30;;;;;;;;;;5028196;28;20024;-55
2023/10/22 12:57:14;;;;;;;5.45;1.70;;;;;;;;;;5032910;28;20100;-55
2023/10/22 12:59:39;;;;;;;5.50;1.97;;;;;;;;;;5030544;28;20449;-55
2023/10/22 13:02:04;;;;;;;4.53;1.73;;;;;;;;;;5032747;28;20026;-55
2023/10/22 13:04:29;;;;;;;3.05;2.17;;;;;;;;;;5032716;28;20388;-55
2023/10/22 13:06:55;;;;;;;3.90;1.30;;;;;;;;;;5032287;28;20041;-55
2023/10/22 13:09:20;;;;;;;1.77;1.60;;;;;;;;;;5033861;28;20101;-55
2023/10/22 13:11:45;;;;;;;1.70;1.47;;;;;;;;;;5031467;28;20034;-55
2023/10/22 13:14:10;;;;;;;6.43;2.83;;;;;;;;;;5033317;28;20026;-54
2023/10/22 13:16:35;;;;;;;5.47;1.70;;;;;;;;;;5032354;28;20435;-56
2023/10/22 13:19:01;;;;;;;1.80;1.70;;;;;;;;;;5032843;28;20119;-55
2023/10/22 13:21:26;;;;;;;1.85;1.45;;;;;;;;;;5032007;28;20037;-55
2023/10/22 13:23:51;;;;;;;2.03;1.83;;;;;;;;;;5032739;28;20383;-55
2023/10/22 13:26:16;;;;;;;2.57;2.00;;;;;;;;;;5031696;28;20050;-55
2023/10/22 13:28:42;;;;;;;4.63;2.57;;;;;;;;;;5033350;28;20500;-55
2023/10/22 13:31:09;;;;;;;2.83;1.50;;;;;;;;;;5030556;28;20038;-56
2023/10/22 13:33:34;;;;;;;4.75;1.80;;;;;;;;;;5032771;28;20029;-55
2023/10/22 13:36:05;;;;;;;8.00;3.70;;;;;;;;;;5031599;28;20041;-56
2023/10/22 13:38:31;;;;;;;2.33;1.75;;;;;;;;;;5033289;28;20048;-55
2023/10/22 13:40:56;;;;;;;3.45;1.90;;;;;;;;;;5030943;28;20033;-55
2023/10/22 13:43:21;;;;;;;2.30;2.10;;;;;;;;;;5031547;28;20017;-55
2023/10/22 13:45:46;;;;;;;2.83;2.60;;;;;;;;;;5031401;28;20485;-55
2023/10/22 13:48:11;;;;;;;3.10;2.23;;;;;;;;;;5032514;28;20440;-55
2023/10/22 13:50:37;;;;;;;2.40;1.50;;;;;;;;;;5031316;28;20120;-54
2023/10/22 13:53:02;;;;;;;2.72;2.53;;;;;;;;;;5032318;28;20021;-55
2023/10/22 13:55:27;;;;;;;4.55;1.90;;;;;;;;;;5031023;28;20049;-55
2023/10/22 13:57:56;;;;;;;8.38;1.90;;;;;;;;;;5032811;28;20067;-55
2023/10/22 14:00:21;;;;;;;4.65;2.13;;;;;;;;;;5031165;28;20026;-55
2023/10/22 14:02:46;;;;;;;2.55;2.30;;;;;;;;;;5032342;28;20525;-55
2023/10/22 14:05:12;;;;;;;10.40;3.45;;;;;;;;;;5031050;28;20029;-55
2023/10/22 14:07:37;;;;;;;3.90;2.23;;;;;;;;;;5032710;28;20053;-55
2023/10/22 14:10:03;;;;;;;9.80;3.45;;;;;;;;;;5030475;28;20539;-54
2023/10/22 14:12:29;;;;;;;3.63;1.85;;;;;;;;;;5032744;28;20013;-55
2023/10/22 14:14:54;;;;;;;6.25;2.72;;;;;;;;;;5031172;28;20028;-56
2023/10/22 14:17:19;;;;;;;4.30;1.83;;;;;;;;;;5031843;28;20670;-54
2023/10/22 14:19:44;;;;;;;2.97;2.77;;;;;;;;;;5030999;28;20025;-55
2023/10/22 14:22:10;;;;;;;4.70;2.07;;;;;;;;;;5032113;28;20419;-55
2023/10/22 14:24:35;;;;;;;2.60;2.03;;;;;;;;;;5032185;28;20432;-55
2023/10/22 14:27:00;;;;;;;4.85;3.05;;;;;;;;;;5030768;28;20069;-55
2023/10/22 14:29:26;;;;;;;2.10;1.90;;;;;;;;;;5032054;28;20044;-56
2023/10/22 14:31:51;;;;;;;2.10;1.90;;;;;;;;;;5029831;28;20037;-55
2023/10/22 14:34:19;;;;;;;4.07;1.92;;;;;;;;;;5032100;28;20134;-55